Time;durP1;ratioP1;P1;durP2;ratioP2;P2;SDS_P1;SDS_P2;PMS_P1;PMS_P2;Temp;Humidity;BMP_temperature;BMP_pressure;BME280_temperature;BME280_humidity;BME280_pressure;Samples;Min_cycle;Max_cycle;Signal;HPM_P1;HPM_P2
2022/11/03 00:01:39;;;;;;;11.77;2.72;;;;;;;10.47;79.65;101354.63;4993219;28;20060;-72
2022/11/03 00:04:06;;;;;;;5.97;2.22;;;;;;;10.52;80.51;101354.34;5000843;28;20046;-72
2022/11/03 00:06:32;;;;;;;18.00;2.92;;;;;;;10.52;80.47;101359.78;5007541;28;20077;-72
2022/11/03 00:08:59;;;;;;;10.93;2.58;;;;;;;10.53;80.55;101356.09;5009897;28;20038;-72
2022/11/03 00:11:24;;;;;;;7.05;3.17;;;;;;;10.51;80.10;101349.88;5011664;28;20508;-72
2022/11/03 00:13:50;;;;;;;12.05;3.35;;;;;;;10.52;80.74;101352.50;5005329;28;20046;-72
2022/11/03 00:16:15;;;;;;;10.63;2.25;;;;;;;10.50;80.01;101340.84;4992780;28;20064;-71
2022/11/03 00:18:41;;;;;;;16.02;3.50;;;;;;;10.51;80.40;101349.88;4992448;28;20077;-72
2022/11/03 00:21:11;;;;;;;10.32;2.30;;;;;;;10.51;79.95;101344.44;4992689;28;20558;-71
2022/11/03 00:23:42;;;;;;;12.25;2.33;;;;;;;10.53;80.06;101339.75;5011620;28;20505;-72
2022/11/03 00:26:27;;;;;;;14.00;2.10;;;;;;;10.54;80.07;101331.53;5010942;28;20073;-72
2022/11/03 00:29:00;;;;;;;9.15;2.15;;;;;;;10.56;80.12;101332.28;5011648;28;20057;-72
2022/11/03 00:31:31;;;;;;;14.93;2.60;;;;;;;10.58;79.61;101333.03;5012037;28;20505;-72
2022/11/03 00:33:58;;;;;;;13.20;2.50;;;;;;;10.57;80.13;101331.31;5009275;28;20512;-72
2022/11/03 00:36:26;;;;;;;9.02;2.63;;;;;;;10.55;80.24;101332.41;5010796;28;20104;-72
2022/11/03 00:38:52;;;;;;;16.75;2.40;;;;;;;10.57;80.16;101314.97;5012229;28;20120;-72
2022/11/03 00:41:21;;;;;;;9.95;2.13;;;;;;;10.54;80.26;101319.75;5011561;28;20521;-72
2022/11/03 00:43:48;;;;;;;17.77;3.28;;;;;;;10.53;79.95;101310.72;5003627;28;20030;-72
2022/11/03 00:46:13;;;;;;;17.00;2.70;;;;;;;10.45;80.85;101296.75;4992365;28;20072;-72
2022/11/03 00:48:39;;;;;;;5.70;1.83;;;;;;;10.52;80.07;101299.94;4991951;28;20057;-72
2022/11/03 00:51:10;;;;;;;11.05;2.65;;;;;;;10.53;80.41;101302.53;4992126;28;20033;-72
2022/11/03 00:53:46;;;;;;;9.75;1.98;;;;;;;10.56;80.15;101298.75;4990840;28;21006;-72
2022/11/03 00:56:21;;;;;;;9.57;2.38;;;;;;;10.55;79.65;101292.47;5007752;28;20041;-72
2022/11/03 00:58:47;;;;;;;11.38;2.45;;;;;;;10.58;79.73;101288.63;5009212;28;20548;-72
2022/11/03 01:01:15;;;;;;;8.43;2.38;;;;;;;10.56;79.95;101294.19;5011186;28;20121;-72
2022/11/03 01:06:48;;;;;;;16.65;2.40;;;;;;;10.57;79.95;101282.34;5004716;28;20030;-71
2022/11/03 01:06:49;;;;;;;16.45;2.53;;;;;;;10.61;80.29;101275.72;4991740;28;20470;-71
2022/11/03 01:09:28;;;;;;;10.10;2.13;;;;;;;10.62;79.61;101269.28;4990772;28;20038;-72
2022/11/03 01:11:58;;;;;;;8.68;2.03;;;;;;;10.64;80.13;101270.09;4990797;28;20034;-72
2022/11/03 01:14:26;;;;;;;11.00;2.17;;;;;;;10.65;80.10;101270.97;4991848;28;20505;-71
2022/11/03 01:16:52;;;;;;;10.25;2.65;;;;;;;10.69;79.90;101273.38;4991963;28;20089;-71
2022/11/03 01:19:17;;;;;;;8.68;2.20;;;;;;;10.69;79.72;101272.50;4981005;28;20042;-72
2022/11/03 01:21:43;;;;;;;14.07;2.47;;;;;;;10.70;79.85;101261.50;4991349;28;20026;-72
2022/11/03 01:24:08;;;;;;;10.40;2.50;;;;;;;10.72;80.60;101261.41;4973757;28;20216;-72
2022/11/03 01:26:33;;;;;;;9.80;2.25;;;;;;;10.74;79.86;101256.75;4991748;28;20470;-71
2022/11/03 01:28:59;;;;;;;12.15;2.60;;;;;;;10.72;80.05;101247.78;4991424;28;20045;-72
2022/11/03 01:31:25;;;;;;;10.75;2.22;;;;;;;10.76;79.76;101249.34;4990292;28;20029;-72
2022/11/03 01:33:53;;;;;;;10.80;2.55;;;;;;;10.80;80.05;101244.56;4991408;28;20053;-72
2022/11/03 01:36:19;;;;;;;9.45;2.47;;;;;;;10.82;79.79;101240.78;4989767;28;20057;-72
2022/11/03 01:38:45;;;;;;;9.95;2.40;;;;;;;10.85;79.23;101240.56;5009507;28;20556;-72
2022/11/03 01:41:14;;;;;;;11.65;2.33;;;;;;;10.84;79.63;101240.66;5010602;28;20038;-72
2022/11/03 01:43:40;;;;;;;10.13;2.10;;;;;;;10.80;80.05;101237.28;5005664;28;20042;-72
2022/11/03 01:46:23;;;;;;;15.40;2.45;;;;;;;10.79;80.40;101230.09;4989891;28;20034;-72
2022/11/03 01:49:05;;;;;;;7.15;2.10;;;;;;;10.83;79.76;101211.72;4989511;28;20514;-72
2022/11/03 01:51:33;;;;;;;11.07;2.13;;;;;;;10.85;79.53;101226.06;4993818;28;20118;-72
2022/11/03 01:54:04;;;;;;;10.57;2.60;;;;;;;10.85;79.90;101215.19;5010643;28;20045;-72
2022/11/03 01:56:33;;;;;;;7.97;2.17;;;;;;;10.86;79.38;101215.06;5010575;28;20481;-72
2022/11/03 01:58:59;;;;;;;13.98;2.30;;;;;;;10.83;80.08;101206.25;5003425;28;20454;-72
2022/11/03 02:01:25;;;;;;;9.43;2.03;;;;;;;10.84;80.05;101216.16;4959306;23;20060;-83
2022/11/03 02:03:56;;;;;;;12.13;2.03;;;;;;;10.82;80.28;101210.84;4936154;23;20062;-75
2022/11/03 02:06:23;;;;;;;16.63;2.40;;;;;;;10.85;80.44;101209.75;4979906;28;20098;-75
2022/11/03 02:08:55;;;;;;;8.45;2.40;;;;;;;10.81;80.52;101205.47;4967127;28;20034;-74
2022/11/03 02:14:10;;;;;;;12.00;2.55;;;;;;;10.85;80.66;101199.72;4959898;28;20490;-75
2022/11/03 02:16:35;;;;;;;8.32;2.15;;;;;;;10.86;80.65;101193.28;4949172;28;20062;-74
2022/11/03 02:19:03;;;;;;;12.40;2.17;;;;;;;10.86;80.67;101193.28;4965677;28;20026;-74
2022/11/03 02:22:06;;;;;;;9.30;2.08;;;;;;;10.86;80.32;101196.03;4966327;28;20072;-74
2022/11/03 02:24:47;;;;;;;9.43;2.60;;;;;;;10.86;80.86;101176.97;4939763;29;20051;-74
2022/11/03 02:27:13;;;;;;;13.80;2.67;;;;;;;10.86;80.49;101179.69;4949626;28;20057;-75
2022/11/03 02:29:38;;;;;;;8.82;2.17;;;;;;;10.87;81.06;101169.69;4963060;28;20514;-74
2022/11/03 02:32:14;;;;;;;9.23;2.30;;;;;;;10.89;80.54;101173.19;4947437;29;20043;-74
2022/11/03 02:34:47;;;;;;;12.75;2.83;;;;;;;10.87;80.52;101162.41;4959870;28;20039;-74
2022/11/03 02:37:19;;;;;;;13.45;2.75;;;;;;;10.91;80.88;101161.22;4982397;28;20094;-75
2022/11/03 02:39:55;;;;;;;7.80;2.80;;;;;;;10.89;80.60;101163.16;4966681;28;20121;-74
2022/11/03 02:42:23;;;;;;;6.65;1.77;;;;;;;10.89;80.39;101146.81;4956363;28;20114;-75
2022/11/03 02:44:51;;;;;;;11.27;2.58;;;;;;;10.90;80.78;101161.31;4948665;28;20118;-75
2022/11/03 02:47:17;;;;;;;13.25;2.83;;;;;;;10.88;80.57;101152.38;4953247;28;20548;-74
2022/11/03 02:49:52;;;;;;;8.48;2.90;;;;;;;10.82;80.65;101142.81;4953889;28;20114;-75
2022/11/03 02:52:35;;;;;;;4.50;1.90;;;;;;;10.82;80.65;101139.19;4949177;28;20031;-74
2022/11/03 02:55:38;;;;;;;12.70;2.25;;;;;;;10.83;80.96;101132.78;4962565;28;20085;-74
2022/11/03 02:58:22;;;;;;;11.43;2.28;;;;;;;10.84;80.76;101138.09;4967858;28;20053;-75
2022/11/03 03:01:04;;;;;;;11.20;2.40;;;;;;;10.82;81.44;101125.56;4966329;28;20038;-75
2022/11/03 03:03:36;;;;;;;13.48;1.95;;;;;;;10.79;81.53;101123.94;4960639;28;20051;-74
2022/11/03 03:06:07;;;;;;;9.75;1.70;;;;;;;10.76;81.63;101110.53;4952964;28;20046;-74
2022/11/03 03:08:36;;;;;;;15.52;2.63;;;;;;;10.79;81.72;101114.91;4949844;28;20118;-74
2022/11/03 03:11:04;;;;;;;11.93;2.28;;;;;;;10.78;81.57;101105.00;4947461;29;20046;-74
2022/11/03 03:13:31;;;;;;;10.70;2.00;;;;;;;10.81;81.55;101096.63;4948087;28;20508;-74
2022/11/03 03:16:10;;;;;;;11.38;2.78;;;;;;;10.84;81.51;101099.13;4966898;28;20375;-74
2022/11/03 03:18:48;;;;;;;11.88;3.17;;;;;;;10.82;81.71;101101.97;4964479;28;20093;-75
2022/11/03 03:21:24;;;;;;;11.75;2.20;;;;;;;10.80;82.12;101101.19;4967619;28;20034;-75
2022/11/03 03:23:58;;;;;;;9.38;2.03;;;;;;;10.82;81.99;101101.97;4967723;28;20049;-75
2022/11/03 03:26:42;;;;;;;15.85;2.95;;;;;;;10.85;81.63;101095.44;4967953;28;20125;-75
2022/11/03 03:29:23;;;;;;;8.52;2.47;;;;;;;10.86;81.52;101089.88;4963417;28;20431;-74
2022/11/03 03:31:54;;;;;;;15.07;2.60;;;;;;;10.88;81.95;101087.06;4950464;29;20035;-75
2022/11/03 03:34:21;;;;;;;10.70;2.67;;;;;;;10.87;81.98;101091.63;4961601;28;20035;-74
2022/11/03 03:36:48;;;;;;;11.02;2.13;;;;;;;10.86;81.99;101076.25;4968564;28;20350;-74
2022/11/03 03:39:17;;;;;;;12.15;2.38;;;;;;;10.86;81.99;101083.56;4970046;28;20035;-74
2022/11/03 03:41:46;;;;;;;12.25;2.20;;;;;;;10.85;82.17;101084.53;4971239;28;20339;-75
2022/11/03 03:44:12;;;;;;;10.18;2.40;;;;;;;10.82;81.99;101077.47;4969816;28;20470;-74
2022/11/03 03:46:42;;;;;;;13.63;2.33;;;;;;;10.78;82.19;101070.50;4969538;28;20043;-75
2022/11/03 03:49:07;;;;;;;6.20;2.28;;;;;;;10.80;82.54;101057.66;4968492;28;20047;-74
2022/11/03 03:51:34;;;;;;;15.55;3.58;;;;;;;10.81;82.08;101058.50;4967403;28;20094;-74
2022/11/03 03:53:59;;;;;;;9.20;2.30;;;;;;;10.82;82.50;101053.00;4950415;29;20537;-75
2022/11/03 03:56:44;;;;;;;9.93;2.55;;;;;;;10.83;82.23;101052.00;4951152;29;20047;-74
2022/11/03 03:59:09;;;;;;;8.68;2.17;;;;;;;10.86;82.82;101053.63;4954173;28;20078;-74
2022/11/03 04:01:34;;;;;;;9.40;2.53;;;;;;;10.90;82.59;101036.97;4960699;28;20031;-75
2022/11/03 04:04:00;;;;;;;8.13;2.08;;;;;;;10.87;82.38;101039.91;4962452;28;20129;-76
2022/11/03 04:06:25;;;;;;;10.38;2.85;;;;;;;10.93;82.67;101038.63;4952128;28;20054;-74
2022/11/03 04:08:51;;;;;;;8.68;2.47;;;;;;;10.93;82.19;101042.19;4973297;28;20256;-75
2022/11/03 04:22:17;;;;;;;12.57;2.47;;;;;;;11.01;82.57;101038.06;4953136;28;20043;-75
2022/11/03 04:24:45;;;;;;;10.13;2.58;;;;;;;10.99;82.99;101036.31;4951299;29;20466;-74
2022/11/03 04:27:33;;;;;;;10.52;2.28;;;;;;;10.97;83.31;101032.84;4960154;28;20462;-75
2022/11/03 04:30:18;;;;;;;8.40;2.03;;;;;;;10.96;83.46;101022.06;4957945;28;20394;-74
2022/11/03 04:32:46;;;;;;;6.43;2.42;;;;;;;10.96;83.24;101030.25;4970532;28;20112;-75
2022/11/03 04:35:21;;;;;;;10.00;2.20;;;;;;;10.95;83.38;101017.56;4969581;28;20039;-75
2022/11/03 04:37:53;;;;;;;7.47;2.50;;;;;;;10.93;83.66;101009.53;4962938;28;20132;-74
2022/11/03 04:40:18;;;;;;;5.28;1.92;;;;;;;10.95;84.00;101007.56;4971932;28;20482;-74
2022/11/03 04:42:44;;;;;;;9.02;2.70;;;;;;;10.96;83.76;101000.28;4972383;28;20043;-74
2022/11/03 04:45:30;;;;;;;11.32;2.90;;;;;;;11.01;83.47;101011.72;4953050;28;20043;-74
2022/11/03 04:47:59;;;;;;;10.75;2.05;;;;;;;11.03;83.54;101003.44;4962886;28;20050;-75
2022/11/03 04:50:25;;;;;;;8.95;2.20;;;;;;;11.06;83.84;101009.53;4966900;28;20324;-75
2022/11/03 04:52:55;;;;;;;12.10;2.15;;;;;;;11.11;83.82;101003.75;4978461;28;20426;-74
2022/11/03 04:55:21;;;;;;;7.15;2.53;;;;;;;11.10;83.98;100993.84;4972071;28;20797;-75
2022/11/03 04:57:47;;;;;;;8.82;2.10;;;;;;;11.09;84.17;100984.78;4968212;28;20135;-75
2022/11/03 05:00:15;;;;;;;10.77;2.67;;;;;;;11.11;84.30;100977.41;4965614;28;20038;-75
2022/11/03 05:02:43;;;;;;;15.35;2.42;;;;;;;11.12;84.24;100972.81;4971335;28;20030;-75
2022/11/03 05:05:15;;;;;;;13.15;3.13;;;;;;;11.15;84.43;100980.78;4954651;28;20780;-75
2022/11/03 05:07:41;;;;;;;;;;;;;;;11.16;83.73;100977.06;4952894;28;20039;-75
2022/11/03 05:10:10;;;;;;;7.57;2.05;;;;;;;11.12;84.65;100967.38;4950759;29;19910;-75
2022/11/03 05:12:35;;;;;;;4.88;1.92;;;;;;;11.12;84.32;100972.81;4967778;28;20074;-75
2022/11/03 05:15:10;;;;;;;7.60;1.95;;;;;;;11.05;84.73;100966.97;4970011;28;20442;-75
2022/11/03 05:17:36;;;;;;;10.15;2.15;;;;;;;11.04;85.39;100976.09;4970095;28;20058;-75
2022/11/03 05:20:02;;;;;;;12.95;3.00;;;;;;;11.06;84.57;100970.56;4967952;28;20035;-75
2022/11/03 05:22:32;;;;;;;7.47;2.25;;;;;;;11.06;85.02;100959.66;4960729;28;20043;-75
2022/11/03 05:25:02;;;;;;;10.80;3.00;;;;;;;11.09;85.24;100957.56;4950258;29;20047;-74
2022/11/03 05:27:28;;;;;;;10.48;2.40;;;;;;;11.11;85.52;100950.16;4954365;28;20126;-74
2022/11/03 05:29:56;;;;;;;9.25;2.70;;;;;;;11.10;85.37;100947.56;4958280;28;20543;-75
2022/11/03 05:32:26;;;;;;;6.28;2.38;;;;;;;11.09;85.20;100943.94;4950439;29;20478;-74
2022/11/03 05:34:54;;;;;;;14.88;3.13;;;;;;;11.11;86.01;100932.97;4965173;28;20134;-75
2022/11/03 05:37:32;;;;;;;13.45;2.35;;;;;;;11.13;85.46;100945.47;4962966;28;20510;-75
2022/11/03 05:40:01;;;;;;;13.80;2.60;;;;;;;11.11;86.02;100936.56;4951492;28;20043;-76
2022/11/03 05:42:31;;;;;;;7.45;2.33;;;;;;;11.15;85.95;100929.03;4949674;29;20395;-74
2022/11/03 05:44:58;;;;;;;7.50;2.28;;;;;;;11.15;86.48;100932.63;4951634;28;20047;-74
2022/11/03 05:47:30;;;;;;;8.05;2.35;;;;;;;11.14;86.36;100932.72;4951535;29;20030;-75
2022/11/03 05:50:00;;;;;;;11.77;3.33;;;;;;;11.17;86.54;100925.19;4951048;28;20054;-75
2022/11/03 05:52:27;;;;;;;11.32;3.53;;;;;;;11.16;86.20;100918.03;4959200;28;20031;-74
2022/11/03 05:54:57;;;;;;;7.47;2.55;;;;;;;11.17;86.02;100921.63;4969395;28;20162;-75
2022/11/03 05:57:24;;;;;;;10.65;2.72;;;;;;;11.17;86.07;100913.44;4958626;28;20039;-75
2022/11/03 05:59:51;;;;;;;8.30;2.47;;;;;;;11.20;86.34;100907.78;4951200;28;20047;-74
2022/11/03 06:02:32;;;;;;;13.13;2.78;;;;;;;11.21;86.43;100910.38;4979977;28;20301;-75
2022/11/03 06:04:58;;;;;;;12.45;2.67;;;;;;;11.22;86.43;100908.53;4954616;28;20078;-74
2022/11/03 06:07:28;;;;;;;8.27;2.20;;;;;;;11.23;86.52;100907.53;4961193;28;20391;-74
2022/11/03 06:09:54;;;;;;;9.35;2.35;;;;;;;11.21;86.76;100896.75;4969069;28;20077;-75
2022/11/03 06:12:21;;;;;;;13.80;3.13;;;;;;;11.21;86.62;100894.03;4970015;28;20490;-75
2022/11/03 06:14:47;;;;;;;12.18;2.90;;;;;;;11.20;86.69;100889.59;4968795;28;20035;-75
2022/11/03 06:17:23;;;;;;;6.57;2.38;;;;;;;11.20;86.56;100883.28;4969892;28;20854;-76
2022/11/03 06:19:51;;;;;;;10.27;2.58;;;;;;;11.18;86.38;100887.94;4952147;28;20182;-75
2022/11/03 06:22:34;;;;;;;8.73;2.63;;;;;;;11.14;87.14;100889.16;4955016;28;20035;-74
2022/11/03 06:25:27;;;;;;;10.18;2.88;;;;;;;11.14;86.65;100891.88;4969465;28;20035;-75
2022/11/03 06:27:56;;;;;;;9.82;2.60;;;;;;;11.12;87.20;100869.34;4969538;28;20498;-74
2022/11/03 06:30:39;;;;;;;11.40;2.63;;;;;;;11.14;86.75;100867.38;4961264;28;20351;-75
2022/11/03 06:33:22;;;;;;;13.05;2.17;;;;;;;11.15;86.59;100869.13;4950198;28;20503;-75
2022/11/03 06:35:50;;;;;;;15.75;3.20;;;;;;;11.14;87.21;100870.09;4949498;29;20498;-75
2022/11/03 06:38:28;;;;;;;11.95;2.10;;;;;;;11.16;87.17;100877.19;4963306;28;20038;-75
2022/11/03 06:40:54;;;;;;;7.10;2.38;;;;;;;11.20;86.98;100873.25;4969544;28;20042;-75
2022/11/03 06:43:21;;;;;;;10.18;2.80;;;;;;;11.23;87.02;100872.13;4967603;28;20034;-74
2022/11/03 06:46:29;;;;;;;8.93;2.17;;;;;;;11.25;86.42;100859.28;4969214;28;20509;-75
2022/11/03 06:48:59;;;;;;;12.55;2.38;;;;;;;11.26;87.08;100857.44;4957103;28;20728;-75
2022/11/03 06:51:29;;;;;;;10.93;2.70;;;;;;;11.25;86.92;100862.00;4949977;28;20039;-74
2022/11/03 06:53:57;;;;;;;12.85;2.65;;;;;;;11.22;87.16;100856.78;4983979;28;20478;-74
2022/11/03 06:56:35;;;;;;;16.67;2.90;;;;;;;11.26;86.50;100861.03;4967418;28;20030;-75
2022/11/03 06:59:00;;;;;;;12.00;2.75;;;;;;;11.24;86.80;100852.97;4963588;28;20047;-75
2022/11/03 07:01:32;;;;;;;14.35;2.60;;;;;;;11.25;86.60;100859.28;4948358;29;20036;-73
2022/11/03 07:04:01;;;;;;;8.00;2.75;;;;;;;11.26;86.89;100852.84;4949782;28;20058;-75
2022/11/03 07:06:35;;;;;;;12.48;2.95;;;;;;;11.26;86.50;100850.13;4932267;28;20054;-75
2022/11/03 07:09:03;;;;;;;8.25;2.28;;;;;;;11.31;86.53;100850.66;4969642;28;20483;-75
2022/11/03 07:11:49;;;;;;;14.93;2.88;;;;;;;11.36;86.10;100847.56;4964796;28;20054;-74
2022/11/03 07:14:14;;;;;;;10.82;2.53;;;;;;;11.38;86.40;100842.91;4960140;28;20035;-75
2022/11/03 07:16:47;;;;;;;13.93;2.47;;;;;;;11.38;85.97;100834.72;4948476;28;20134;-74
2022/11/03 07:19:21;;;;;;;7.80;2.10;;;;;;;11.41;85.78;100831.75;4949800;28;20122;-75
2022/11/03 07:22:01;;;;;;;8.38;2.47;;;;;;;11.43;85.70;100836.09;4948445;28;20035;-75
2022/11/03 07:24:40;;;;;;;12.00;2.15;;;;;;;11.46;85.67;100829.53;4949487;29;20035;-74
2022/11/03 07:27:20;;;;;;;6.55;2.25;;;;;;;11.50;85.05;100837.34;4949996;28;20043;-75
2022/11/03 07:29:47;;;;;;;9.95;2.42;;;;;;;11.52;85.18;100831.81;4960339;28;20370;-75
2022/11/03 07:32:18;;;;;;;9.10;2.28;;;;;;;11.54;85.35;100829.81;4967373;28;20110;-74
2022/11/03 07:34:46;;;;;;;9.10;2.38;;;;;;;11.55;85.32;100819.78;4967328;28;20490;-75
2022/11/03 07:37:20;;;;;;;8.80;2.10;;;;;;;11.58;84.66;100823.16;4962809;28;20114;-74
2022/11/03 07:39:45;;;;;;;12.05;2.63;;;;;;;11.58;84.86;100809.53;4947961;29;20039;-74
2022/11/03 07:42:18;;;;;;;13.02;2.40;;;;;;;11.63;84.69;100814.63;4947926;29;20039;-75
2022/11/03 07:44:43;;;;;;;;;;;;;;;11.65;84.62;100813.50;4950163;28;20046;-75
2022/11/03 07:47:19;;;;;;;8.10;2.72;;;;;;;11.72;84.30;100825.69;4949685;29;19914;-75
2022/11/03 07:49:44;;;;;;;8.70;2.00;;;;;;;11.70;84.04;100811.31;4956390;28;20042;-74
2022/11/03 07:52:16;;;;;;;7.32;2.17;;;;;;;11.74;83.40;100815.50;4962469;28;20031;-74
2022/11/03 07:54:41;;;;;;;14.33;2.20;;;;;;;11.79;83.56;100827.91;4948069;29;20031;-74
2022/11/03 07:57:18;;;;;;;11.77;2.60;;;;;;;11.78;83.35;100821.59;4958768;28;20290;-74
2022/11/03 07:59:49;;;;;;;9.90;2.90;;;;;;;11.83;83.42;100827.59;4965148;28;20039;-75
2022/11/03 08:02:44;;;;;;;13.88;2.88;;;;;;;11.84;83.39;100832.06;4965517;28;20054;-76
2022/11/03 08:05:09;;;;;;;10.63;3.53;;;;;;;11.83;82.87;100818.56;4944435;28;20494;-75
2022/11/03 08:07:35;;;;;;;11.20;2.40;;;;;;;11.88;83.14;100814.47;4956265;28;20113;-75
2022/11/03 08:10:00;;;;;;;10.68;2.72;;;;;;;11.91;82.67;100810.66;4967385;28;20050;-74
2022/11/03 08:12:26;;;;;;;8.27;2.10;;;;;;;11.95;83.15;100803.97;4969821;28;20106;-75
2022/11/03 08:14:51;;;;;;;12.60;2.35;;;;;;;11.98;82.20;100793.69;4956413;28;20035;-74
2022/11/03 08:17:16;;;;;;;9.90;2.22;;;;;;;11.99;82.81;100797.28;4961535;28;20122;-75
2022/11/03 08:19:41;;;;;;;9.75;2.53;;;;;;;12.03;82.17;100797.91;4962397;28;20038;-75
2022/11/03 08:22:07;;;;;;;7.25;2.50;;;;;;;12.05;81.86;100791.34;4966787;28;20470;-75
2022/11/03 08:24:33;;;;;;;9.18;2.42;;;;;;;12.08;82.12;100771.16;4952432;28;20518;-75
2022/11/03 08:26:58;;;;;;;3.80;2.00;;;;;;;12.11;82.48;100771.75;4951047;29;20039;-74
2022/11/03 08:29:26;;;;;;;13.55;2.60;;;;;;;12.15;81.59;100762.34;4955137;28;20023;-74
2022/11/03 08:31:53;;;;;;;8.85;2.20;;;;;;;12.19;80.91;100754.78;4951123;29;20503;-75
2022/11/03 08:34:19;;;;;;;9.13;2.55;;;;;;;12.23;80.55;100748.97;4960003;28;20508;-75
2022/11/03 08:36:44;;;;;;;9.45;2.20;;;;;;;12.27;80.51;100752.31;4969112;28;20022;-75
2022/11/03 08:39:10;;;;;;;8.23;2.42;;;;;;;12.31;81.12;100742.00;4971361;28;20038;-75
2022/11/03 08:41:35;;;;;;;9.82;2.35;;;;;;;12.34;81.36;100731.72;4971536;28;20041;-76
2022/11/03 08:44:00;;;;;;;10.27;1.90;;;;;;;12.37;80.62;100717.81;4969499;28;20113;-75
2022/11/03 08:46:26;;;;;;;8.93;2.00;;;;;;;12.41;80.83;100711.13;4971572;28;20085;-73
2022/11/03 08:48:51;;;;;;;7.72;2.30;;;;;;;12.46;80.73;100699.84;4969993;28;20023;-75
2022/11/03 08:51:17;;;;;;;11.35;2.58;;;;;;;12.52;79.61;100696.59;4969989;28;20030;-74
2022/11/03 08:53:42;;;;;;;9.18;2.50;;;;;;;12.58;80.32;100695.22;4969313;28;20294;-74
2022/11/03 08:56:08;;;;;;;9.32;2.38;;;;;;;12.63;80.12;100687.50;4971564;28;20031;-74
2022/11/03 08:58:34;;;;;;;10.18;2.13;;;;;;;12.69;80.15;100690.59;4968429;28;20046;-75
2022/11/03 09:00:59;;;;;;;10.52;2.10;;;;;;;12.74;78.76;100676.56;4951936;29;20031;-74
2022/11/03 09:03:24;;;;;;;8.45;1.90;;;;;;;12.85;78.81;100681.09;4952060;28;20057;-75
2022/11/03 09:05:50;;;;;;;9.50;2.40;;;;;;;12.92;78.09;100668.69;4950411;29;20058;-75
2022/11/03 09:08:16;;;;;;;10.27;1.70;;;;;;;13.00;77.74;100657.94;4963783;28;20545;-75
2022/11/03 09:10:41;;;;;;;8.23;1.88;;;;;;;13.06;77.02;100646.53;4969899;28;20021;-75
2022/11/03 09:13:07;;;;;;;6.47;1.92;;;;;;;13.16;77.33;100650.19;4958619;28;20031;-74
2022/11/03 09:15:32;;;;;;;9.32;1.90;;;;;;;13.24;77.06;100647.69;4966966;28;20046;-75
2022/11/03 09:17:58;;;;;;;8.10;2.25;;;;;;;13.31;76.48;100631.63;4968157;28;20042;-75
2022/11/03 09:20:23;;;;;;;6.82;2.10;;;;;;;13.35;75.77;100624.03;4964085;28;20048;-75
2022/11/03 09:22:49;;;;;;;4.80;1.70;;;;;;;13.42;75.64;100614.28;4960477;28;20078;-75
2022/11/03 09:25:15;;;;;;;5.15;2.15;;;;;;;13.43;74.49;100603.22;4949916;28;20150;-75
2022/11/03 09:27:40;;;;;;;7.03;1.58;;;;;;;13.46;75.54;100591.16;4957207;28;20050;-75
2022/11/03 09:30:06;;;;;;;5.38;1.90;;;;;;;13.50;75.24;100578.94;4951546;28;20047;-74
2022/11/03 09:32:31;;;;;;;11.13;3.08;;;;;;;13.53;75.24;100586.88;4949844;29;20028;-76
2022/11/03 09:34:57;;;;;;;6.95;1.95;;;;;;;13.55;73.76;100575.81;4951844;28;20123;-75
2022/11/03 09:37:22;;;;;;;8.40;2.20;;;;;;;13.59;74.51;100571.78;4956235;28;20039;-75
2022/11/03 09:39:48;;;;;;;5.47;2.10;;;;;;;13.63;73.06;100568.66;4970460;28;20478;-75
2022/11/03 09:42:15;;;;;;;5.22;1.38;;;;;;;13.66;73.98;100564.75;4953172;28;20035;-74
2022/11/03 09:44:41;;;;;;;8.80;1.83;;;;;;;13.69;73.85;100562.63;4968372;28;20050;-76
2022/11/03 09:47:12;;;;;;;12.07;2.30;;;;;;;13.70;73.84;100556.13;4970427;28;20518;-75
2022/11/03 09:49:38;;;;;;;9.47;1.93;;;;;;;13.70;73.40;100549.81;4967531;28;20121;-76
2022/11/03 09:52:04;;;;;;;8.38;1.70;;;;;;;13.70;72.52;100553.41;4967774;28;20521;-75
2022/11/03 09:54:30;;;;;;;8.73;1.90;;;;;;;13.70;73.19;100555.28;4968670;28;20050;-75
2022/11/03 09:57:04;;;;;;;6.07;1.38;;;;;;;13.69;72.60;100540.75;4969194;28;20038;-76
2022/11/03 09:59:29;;;;;;;4.75;1.95;;;;;;;13.66;74.41;100523.75;4961862;28;20433;-75
2022/11/03 10:01:55;;;;;;;4.13;1.42;;;;;;;13.65;73.49;100527.50;4968323;28;20093;-75
2022/11/03 10:04:30;;;;;;;9.13;2.10;;;;;;;13.60;74.29;100524.31;4959911;28;20056;-75
2022/11/03 10:06:57;;;;;;;9.15;2.25;;;;;;;13.61;72.71;100526.03;4936184;28;20039;-76
2022/11/03 10:09:24;;;;;;;6.88;2.33;;;;;;;13.60;73.15;100529.78;4970601;28;20394;-75
2022/11/03 10:11:53;;;;;;;4.57;1.63;;;;;;;13.58;73.64;100527.19;4970030;28;20512;-75
2022/11/03 10:14:19;;;;;;;7.97;1.85;;;;;;;13.57;72.89;100521.84;4966782;28;20038;-74
2022/11/03 10:16:59;;;;;;;6.57;2.88;;;;;;;13.55;73.15;100507.47;4969885;28;20038;-75
2022/11/03 10:19:25;;;;;;;8.20;2.30;;;;;;;13.50;73.29;100503.28;4961423;28;20044;-75
2022/11/03 10:21:51;;;;;;;10.15;1.90;;;;;;;13.49;73.76;100500.69;4954289;28;20039;-75
2022/11/03 10:24:17;;;;;;;4.97;1.67;;;;;;;13.46;73.53;100501.81;4949172;28;20130;-75
2022/11/03 10:26:51;;;;;;;5.88;2.22;;;;;;;13.45;73.92;100500.09;4963115;28;20348;-75
2022/11/03 10:29:34;;;;;;;7.68;1.80;;;;;;;13.45;74.64;100496.50;4962089;28;20040;-74
2022/11/03 10:32:00;;;;;;;5.57;2.03;;;;;;;13.44;74.33;100492.91;4950336;29;20043;-74
2022/11/03 10:34:31;;;;;;;8.48;2.17;;;;;;;13.46;74.26;100496.34;4958848;28;20042;-75
2022/11/03 10:37:11;;;;;;;4.80;1.73;;;;;;;13.53;73.63;100491.22;4966730;28;20081;-74
2022/11/03 10:39:37;;;;;;;6.53;1.90;;;;;;;13.58;73.05;100474.41;4967826;28;20049;-75
2022/11/03 10:42:03;;;;;;;8.02;1.98;;;;;;;13.64;73.62;100468.38;4952727;28;20055;-75
2022/11/03 10:44:29;;;;;;;8.60;2.03;;;;;;;13.69;73.83;100466.94;4940177;28;20046;-74
2022/11/03 10:47:00;;;;;;;9.43;2.65;;;;;;;13.77;73.33;100461.63;4968176;28;20042;-75
2022/11/03 10:49:31;;;;;;;11.13;2.33;;;;;;;13.87;73.18;100458.06;4966838;28;20080;-75
2022/11/03 10:52:12;;;;;;;6.68;1.85;;;;;;;13.95;72.48;100461.81;4968133;28;20046;-75
2022/11/03 10:54:37;;;;;;;6.25;1.98;;;;;;;14.09;70.93;100470.59;4967989;28;20046;-75
2022/11/03 10:57:02;;;;;;;5.70;1.70;;;;;;;14.19;72.58;100457.78;4948760;28;20042;-75
2022/11/03 10:59:31;;;;;;;11.90;1.90;;;;;;;14.27;72.44;100452.47;4967064;28;20145;-75
2022/11/03 11:01:58;;;;;;;7.78;2.70;;;;;;;14.32;72.92;100450.16;4951658;28;20047;-73
2022/11/03 11:04:23;;;;;;;3.15;1.83;;;;;;;14.38;70.65;100444.09;4959396;28;20400;-75
2022/11/03 11:06:49;;;;;;;11.40;1.83;;;;;;;14.44;70.86;100439.91;4950450;28;20077;-75
2022/11/03 11:09:25;;;;;;;6.28;1.90;;;;;;;14.51;71.13;100441.09;4950234;29;20047;-75
2022/11/03 11:12:05;;;;;;;10.50;1.90;;;;;;;14.58;69.74;100428.53;4949912;29;20046;-75
2022/11/03 11:14:37;;;;;;;8.95;2.28;;;;;;;14.62;70.01;100437.31;4949909;28;20043;-74
2022/11/03 11:17:04;;;;;;;6.25;1.70;;;;;;;14.62;68.40;100429.09;4948727;29;20043;-75
2022/11/03 11:19:49;;;;;;;7.57;1.90;;;;;;;14.63;69.27;100418.00;4949849;28;20091;-74
2022/11/03 11:22:21;;;;;;;7.47;1.90;;;;;;;14.65;68.51;100420.59;4949877;28;20046;-75
2022/11/03 11:24:46;;;;;;;7.05;2.33;;;;;;;14.64;69.01;100413.38;4968887;28;20508;-74
2022/11/03 11:27:33;;;;;;;8.57;1.70;;;;;;;14.68;68.91;100410.19;4966925;28;20054;-74
2022/11/03 11:30:00;;;;;;;10.55;2.08;;;;;;;14.66;67.46;100398.53;4967357;28;20042;-74
2022/11/03 11:32:38;;;;;;;8.40;1.70;;;;;;;14.70;68.77;100399.97;4969276;28;20110;-74
2022/11/03 11:35:06;;;;;;;9.00;1.88;;;;;;;14.71;68.17;100370.72;4965310;28;20450;-74
2022/11/03 11:37:33;;;;;;;9.55;1.98;;;;;;;14.76;68.41;100379.34;4966437;28;20366;-75
2022/11/03 11:39:59;;;;;;;9.50;1.73;;;;;;;14.79;67.33;100365.38;4968779;28;20046;-74
2022/11/03 11:42:25;;;;;;;8.20;1.90;;;;;;;14.84;68.09;100353.97;4967125;28;20344;-75
2022/11/03 11:44:56;;;;;;;5.65;2.03;;;;;;;14.88;67.42;100345.28;4967671;28;20034;-73
2022/11/03 11:47:45;;;;;;;4.77;1.60;;;;;;;14.92;67.60;100343.97;4968055;28;20176;-75
2022/11/03 11:50:13;;;;;;;4.32;1.73;;;;;;;14.96;66.69;100341.78;4971630;28;20490;-74